Allendale, Michigan
Current Conditions -  °F | °C
As of 7:53 PM on Thursday 30 Oct 2014 (Local Time) from KBIV Reporting Station
Overcast Overcast  
Wind Chill: 47°   Ceiling: 4100
Heat Index: 49°   Visibility: 10mi
Dew Point: 38°   Wind: 5mph
Humidity: 66%   Direction: 260°W
Pressure: 30.05"   Gusts: NA
Location:  42.97°N, 85.95°W
Report Text: KBIV 302353Z AUTO 26004KT 10SM OVC041 09/03 A3005 RMK AO2 SLP180 T00940033 10111 20089 58003
Loading
Personal Weather Stations






























Interactive Weather Map
Tropical Storm Tracking
New forecast layout! Learn more

10-Day Weather Forecast

Advertisements
Track Severe Weather on mobile